createdAt,value
2017-04-18T00:01:35.276Z,75.85
2017-04-18T00:02:23.120Z,75.57
2017-04-18T00:03:34.711Z,75.95
2017-04-18T00:04:44.681Z,75.35
2017-04-18T00:05:38.562Z,74.76
2017-04-18T00:06:35.091Z,75.27
2017-04-18T00:07:34.289Z,75.42
2017-04-18T00:08:33.284Z,75.18
2017-04-18T00:14:34.726Z,75.22
2017-04-18T00:15:25.108Z,75.30
2017-04-18T00:17:38.772Z,75.59
2017-04-18T00:18:33.819Z,75.47
2017-04-18T00:20:34.828Z,74.82
2017-04-18T00:21:43.062Z,74.62
2017-04-18T00:23:37.926Z,74.80
2017-04-18T00:24:34.876Z,75.06
2017-04-18T00:26:32.325Z,74.18
2017-04-18T00:27:34.099Z,73.91
2017-04-18T00:31:35.029Z,73.46
2017-04-18T00:32:25.076Z,73.99
2017-04-18T00:34:39.155Z,73.42
2017-04-18T00:35:35.771Z,73.52
2017-04-18T00:37:37.474Z,74.14
2017-04-18T00:38:33.966Z,74.29
2017-04-18T00:39:32.435Z,74.30
2017-04-18T00:41:34.699Z,73.87
2017-04-18T00:42:43.818Z,73.98
2017-04-18T00:44:39.866Z,74.50
2017-04-18T00:45:35.892Z,74.41
2017-04-18T00:46:33.111Z,74.29
2017-04-18T00:49:25.468Z,74.61
2017-04-18T00:51:25.174Z,74.69
2017-04-18T00:54:42.485Z,74.56
2017-04-18T00:55:37.542Z,74.50
2017-04-18T00:56:32.030Z,74.58
2017-04-18T00:57:31.734Z,74.41
2017-04-18T00:58:43.751Z,74.91
2017-04-18T00:59:32.497Z,74.95
2017-04-18T01:00:51.984Z,74.92
2017-04-18T01:01:37.468Z,74.73
2017-04-18T01:02:33.868Z,75.05
2017-04-18T01:03:37.977Z,74.65
2017-04-18T01:04:24.081Z,74.51
2017-04-18T01:05:42.630Z,74.30
2017-04-18T01:06:41.233Z,74.63
2017-04-18T01:07:32.073Z,74.65
2017-04-18T01:08:33.144Z,74.78
2017-04-18T01:09:32.282Z,75.20
2017-04-18T01:10:37.422Z,74.75
2017-04-18T01:11:33.529Z,75.32
2017-04-18T01:12:31.639Z,74.88
2017-04-18T01:13:26.123Z,74.84
2017-04-18T01:14:33.899Z,74.71
2017-04-18T01:16:33.896Z,74.80
2017-04-18T01:17:26.775Z,74.89
2017-04-18T01:18:33.924Z,75.39
2017-04-18T01:19:33.047Z,75.51
2017-04-18T01:20:38.418Z,75.06
2017-04-18T01:21:25.608Z,75.51
2017-04-18T01:22:32.304Z,75.04
2017-04-18T01:23:32.409Z,74.63
2017-04-18T01:25:38.015Z,74.31
2017-04-18T01:26:42.015Z,74.78
2017-04-18T01:27:42.576Z,74.62
2017-04-18T01:28:31.736Z,75.04
2017-04-18T01:29:38.491Z,75.06
2017-04-18T01:30:33.880Z,75.65
2017-04-18T01:31:23.898Z,76.18
2017-04-18T01:32:32.883Z,76.09
2017-04-18T01:33:39.691Z,76.42
2017-04-18T01:34:39.884Z,76.53
2017-04-18T01:35:23.885Z,77.06
2017-04-18T01:36:33.432Z,76.68
2017-04-18T01:37:28.553Z,76.23
2017-04-18T01:38:33.111Z,76.38
2017-04-18T01:39:33.599Z,76.38
2017-04-18T01:40:32.504Z,76.00
2017-04-18T01:41:32.429Z,76.60
2017-04-18T01:42:33.735Z,76.65
2017-04-18T01:43:36.285Z,76.70
2017-04-18T01:44:34.823Z,76.44
2017-04-18T01:45:44.225Z,76.50
2017-04-18T01:46:32.366Z,76.15
2017-04-18T01:47:32.447Z,76.16
2017-04-18T01:48:32.918Z,76.51
2017-04-18T01:49:32.914Z,76.87
2017-04-18T01:50:33.052Z,76.63
2017-04-18T01:51:33.232Z,76.49
2017-04-18T01:52:31.792Z,76.74
2017-04-18T01:53:32.463Z,76.95
2017-04-18T01:54:33.491Z,76.82
2017-04-18T01:55:44.087Z,76.65
2017-04-18T01:56:42.203Z,76.05
2017-04-18T01:57:32.451Z,75.86
2017-04-18T01:58:42.858Z,76.16
2017-04-18T01:59:32.280Z,76.07
2017-04-18T02:00:31.803Z,76.15
2017-04-18T02:02:32.574Z,76.96
2017-04-18T02:03:32.685Z,76.88
2017-04-18T02:04:42.668Z,76.72
2017-04-18T02:05:23.141Z,76.91
2017-04-18T02:06:30.972Z,76.63
2017-04-18T02:07:33.833Z,76.69
2017-04-18T02:08:33.872Z,76.26
2017-04-18T02:09:34.982Z,76.50
2017-04-18T02:10:47.140Z,76.29
2017-04-18T02:11:33.248Z,76.01
2017-04-18T02:12:33.390Z,76.44
2017-04-18T02:13:32.394Z,76.12
2017-04-18T02:14:25.223Z,75.80
2017-04-18T02:15:32.282Z,75.78
2017-04-18T02:16:32.686Z,75.78
2017-04-18T02:17:24.830Z,75.71
2017-04-18T02:18:32.600Z,76.28
2017-04-18T02:19:32.641Z,76.45
2017-04-18T02:20:37.952Z,76.82
2017-04-18T02:21:32.210Z,76.87
2017-04-18T02:22:32.382Z,76.28
2017-04-18T02:23:33.027Z,76.36
2017-04-18T02:24:25.056Z,76.20
2017-04-18T02:25:34.532Z,76.24
2017-04-18T02:26:32.572Z,76.39
2017-04-18T02:27:32.205Z,76.14
2017-04-18T02:29:43.101Z,76.40
2017-04-18T02:30:33.176Z,76.68
2017-04-18T02:31:32.107Z,77.07
2017-04-18T02:32:32.218Z,76.47
2017-04-18T02:33:30.759Z,76.08
2017-04-18T02:34:25.560Z,76.19
2017-04-18T02:35:33.417Z,75.72
2017-04-18T02:36:25.245Z,75.65
2017-04-18T02:37:33.892Z,75.61
2017-04-18T02:38:23.896Z,75.49
2017-04-18T02:39:34.183Z,75.70
2017-04-18T02:40:32.102Z,75.33
2017-04-18T02:41:33.212Z,75.56
2017-04-18T02:42:31.833Z,75.38
2017-04-18T02:43:32.283Z,75.14
2017-04-18T02:44:21.347Z,75.53
2017-04-18T02:45:24.544Z,75.28
2017-04-18T02:46:32.302Z,75.32
2017-04-18T02:47:24.934Z,75.09
2017-04-18T02:48:32.047Z,75.33
2017-04-18T02:49:33.125Z,75.87
2017-04-18T02:50:38.973Z,76.20
2017-04-18T02:51:38.144Z,76.09
2017-04-18T02:52:22.843Z,76.28
2017-04-18T02:53:32.499Z,76.09
2017-04-18T02:54:27.467Z,75.58
2017-04-18T02:55:38.353Z,75.64
2017-04-18T02:56:42.513Z,76.33
2017-04-18T02:57:32.234Z,76.10
2017-04-18T02:59:32.278Z,76.04
2017-04-18T03:00:23.247Z,76.15
2017-04-18T03:01:33.886Z,75.73
2017-04-18T03:02:33.961Z,75.55
2017-04-18T03:03:37.991Z,75.11
2017-04-18T03:04:37.784Z,76.00
2017-04-18T03:05:38.064Z,76.17
2017-04-18T03:06:37.250Z,76.92
2017-04-18T03:07:38.002Z,77.75
2017-04-18T03:08:37.794Z,77.57
2017-04-18T03:09:33.916Z,77.07
2017-04-18T03:10:32.983Z,76.72
2017-04-18T03:11:26.440Z,76.86
2017-04-18T03:12:33.596Z,76.62
2017-04-18T03:13:39.184Z,76.71
2017-04-18T03:14:32.410Z,77.16
2017-04-18T03:15:42.775Z,75.89
2017-04-18T03:16:42.845Z,76.37
2017-04-18T03:17:32.279Z,76.07
2017-04-18T03:18:37.383Z,76.01
2017-04-18T03:19:38.131Z,75.88
2017-04-18T03:20:32.722Z,75.43
2017-04-18T03:21:33.611Z,75.43
2017-04-18T03:23:32.252Z,75.83
2017-04-18T03:24:33.088Z,75.85
2017-04-18T03:25:28.865Z,75.10
2017-04-18T03:26:32.852Z,75.17
2017-04-18T03:27:26.325Z,76.06
2017-04-18T03:28:43.260Z,76.05
2017-04-18T03:29:38.064Z,75.90
2017-04-18T03:30:37.524Z,76.24
2017-04-18T03:31:32.622Z,75.68
2017-04-18T03:32:26.781Z,76.00
2017-04-18T03:33:39.521Z,76.31
2017-04-18T03:35:33.578Z,74.91
2017-04-18T03:36:32.626Z,75.18
2017-04-18T03:37:35.088Z,75.22
2017-04-18T03:38:21.244Z,75.42
2017-04-18T03:39:38.332Z,75.47
2017-04-18T03:40:32.290Z,76.08
2017-04-18T03:41:23.420Z,75.95
2017-04-18T03:42:33.394Z,76.23
2017-04-18T03:43:34.513Z,75.94
2017-04-18T03:45:32.736Z,75.31
2017-04-18T03:47:32.891Z,75.90
2017-04-18T03:48:35.009Z,75.41
2017-04-18T03:49:40.984Z,75.37
2017-04-18T03:50:32.558Z,75.90
2017-04-18T03:51:43.813Z,75.40
2017-04-18T03:52:33.163Z,76.08
2017-04-18T03:53:32.419Z,76.24
2017-04-18T03:54:24.658Z,76.40
2017-04-18T03:55:37.630Z,76.26
2017-04-18T03:56:27.511Z,76.66
2017-04-18T03:57:37.811Z,77.08
2017-04-18T03:58:18.374Z,76.54
2017-04-18T03:59:23.965Z,76.67
2017-04-18T04:00:43.382Z,76.78
2017-04-18T04:01:33.742Z,75.77
2017-04-18T04:02:32.871Z,76.12
2017-04-18T04:03:32.600Z,75.92
2017-04-18T04:04:38.710Z,76.03
2017-04-18T04:05:33.313Z,75.91
2017-04-18T04:06:43.536Z,76.30
2017-04-18T04:07:32.807Z,76.85
2017-04-18T04:08:33.268Z,76.92
2017-04-18T04:09:24.333Z,76.75
2017-04-18T04:10:23.400Z,76.20
2017-04-18T04:11:32.243Z,76.39
2017-04-18T04:12:23.817Z,76.46
2017-04-18T04:13:23.928Z,76.50
2017-04-18T04:14:28.533Z,76.61
2017-04-18T04:15:33.566Z,75.78
2017-04-18T04:16:43.892Z,76.61
2017-04-18T04:17:24.992Z,76.67
2017-04-18T04:18:33.231Z,76.38
2017-04-18T04:19:32.626Z,76.03
2017-04-18T04:20:38.811Z,75.42
2017-04-18T04:21:23.660Z,75.47
2017-04-18T04:22:37.268Z,75.77
2017-04-18T04:23:38.825Z,76.30
2017-04-18T04:24:36.390Z,75.99
2017-04-18T04:26:32.046Z,75.60
2017-04-18T04:27:31.882Z,75.46
2017-04-18T04:28:33.007Z,76.46
2017-04-18T04:29:29.234Z,76.48
2017-04-18T04:30:32.336Z,76.23
2017-04-18T04:31:32.354Z,76.53
2017-04-18T04:32:33.308Z,76.28
2017-04-18T04:33:25.363Z,76.33
2017-04-18T04:35:37.553Z,76.30
2017-04-18T04:36:42.430Z,76.22
2017-04-18T04:37:38.275Z,76.14
2017-04-18T04:38:32.849Z,76.37
2017-04-18T04:39:25.396Z,76.23
2017-04-18T04:40:33.534Z,76.30
2017-04-18T04:41:38.141Z,75.86
2017-04-18T04:42:34.627Z,75.80
2017-04-18T04:43:32.073Z,76.21
2017-04-18T04:44:32.713Z,76.45
2017-04-18T04:45:37.334Z,76.57
2017-04-18T04:46:38.482Z,76.68
2017-04-18T04:47:37.381Z,75.96
2017-04-18T04:48:37.478Z,76.49
2017-04-18T04:49:43.143Z,76.56
2017-04-18T04:50:33.263Z,76.37
2017-04-18T04:51:32.257Z,76.64
2017-04-18T04:53:32.791Z,76.97
2017-04-18T04:54:26.779Z,77.37
2017-04-18T04:55:33.277Z,76.76
2017-04-18T04:56:23.179Z,76.42
2017-04-18T04:57:49.498Z,76.51
2017-04-18T04:58:42.825Z,77.15
2017-04-18T04:59:38.056Z,76.79
2017-04-18T05:00:32.360Z,76.64
2017-04-18T05:01:32.426Z,76.85
2017-04-18T05:02:33.752Z,76.63
2017-04-18T05:03:24.581Z,76.30
2017-04-18T05:04:33.046Z,76.96
2017-04-18T05:06:23.313Z,76.65
2017-04-18T05:09:24.039Z,76.16
2017-04-18T05:10:32.531Z,76.03
2017-04-18T05:11:23.660Z,76.23
2017-04-18T05:13:31.863Z,75.95
2017-04-18T05:14:32.186Z,75.83
2017-04-18T05:15:32.205Z,76.49
2017-04-18T05:16:24.163Z,76.58
2017-04-18T05:17:33.318Z,76.66
2017-04-18T05:18:23.373Z,77.44
2017-04-18T05:19:26.071Z,76.80
2017-04-18T05:20:37.153Z,76.29
2017-04-18T05:21:32.012Z,76.39
2017-04-18T05:22:26.386Z,75.90
2017-04-18T05:23:33.053Z,76.48
2017-04-18T05:24:24.137Z,75.96
2017-04-18T05:25:29.546Z,75.86
2017-04-18T05:26:37.782Z,76.14
2017-04-18T05:27:27.435Z,76.59
2017-04-18T05:31:32.672Z,76.47
2017-04-18T05:32:28.315Z,77.19
2017-04-18T05:33:33.649Z,76.78
2017-04-18T05:34:38.823Z,76.85
2017-04-18T05:35:33.656Z,77.32
2017-04-18T05:36:32.331Z,77.77
2017-04-18T05:37:32.441Z,79.04
2017-04-18T05:38:24.062Z,78.99
2017-04-18T05:39:22.816Z,78.98
2017-04-18T05:40:57.463Z,79.50
2017-04-18T05:42:33.680Z,79.04
2017-04-18T05:43:38.855Z,80.16
2017-04-18T05:44:32.273Z,79.82
2017-04-18T05:45:33.332Z,80.17
2017-04-18T05:46:34.006Z,80.26
2017-04-18T05:47:33.328Z,80.40
2017-04-18T05:48:33.739Z,79.69
2017-04-18T05:49:33.377Z,79.50
2017-04-18T05:50:32.931Z,78.81
2017-04-18T05:52:32.433Z,77.95
2017-04-18T05:53:33.185Z,77.16
2017-04-18T05:54:23.231Z,77.21
2017-04-18T05:55:32.520Z,77.84
2017-04-18T05:56:34.186Z,77.20
2017-04-18T05:57:38.519Z,76.95
2017-04-18T05:58:32.584Z,77.72
2017-04-18T05:59:24.084Z,77.03
2017-04-18T06:00:38.770Z,77.50
2017-04-18T06:01:37.419Z,76.77
2017-04-18T06:02:37.945Z,76.57
2017-04-18T06:03:23.588Z,76.41
2017-04-18T06:04:31.314Z,77.38
2017-04-18T06:05:23.839Z,77.12
2017-04-18T06:06:23.921Z,76.70
2017-04-18T06:07:38.308Z,77.00
2017-04-18T06:08:33.172Z,76.75
2017-04-18T06:09:33.212Z,76.36
2017-04-18T06:11:32.539Z,76.85
2017-04-18T06:12:32.658Z,76.42
2017-04-18T06:13:24.776Z,76.08
2017-04-18T06:15:31.279Z,76.59
2017-04-18T06:16:23.730Z,77.27
2017-04-18T06:17:32.135Z,76.68
2017-04-18T06:18:34.312Z,75.92
2017-04-18T06:19:29.101Z,75.77
2017-04-18T06:21:32.488Z,76.28
2017-04-18T06:22:32.530Z,76.69
2017-04-18T06:23:32.960Z,76.89
2017-04-18T06:24:31.331Z,76.58
2017-04-18T06:25:32.638Z,76.57
2017-04-18T06:26:32.773Z,76.07
2017-04-18T06:27:31.802Z,75.74
2017-04-18T06:28:37.359Z,75.71
2017-04-18T06:29:31.440Z,76.41
2017-04-18T06:30:32.236Z,76.17
2017-04-18T06:31:27.736Z,75.66
2017-04-18T06:33:37.887Z,74.85
2017-04-18T06:34:32.939Z,75.14
2017-04-18T06:35:32.429Z,75.11
2017-04-18T06:36:32.511Z,74.85
2017-04-18T06:37:25.541Z,74.75
2017-04-18T06:39:37.986Z,75.08
2017-04-18T06:40:28.153Z,75.29
2017-04-18T06:41:32.427Z,75.56
2017-04-18T06:43:32.545Z,74.91
2017-04-18T06:45:32.135Z,75.74
2017-04-18T06:46:37.274Z,74.59
2017-04-18T06:47:33.151Z,74.57
2017-04-18T06:48:43.100Z,74.69
2017-04-18T06:49:29.076Z,75.12
2017-04-18T06:50:37.740Z,75.04
2017-04-18T06:51:33.209Z,74.98
2017-04-18T06:52:32.858Z,74.72
2017-04-18T06:53:28.103Z,75.14
2017-04-18T06:54:33.798Z,75.28
2017-04-18T06:56:33.996Z,75.40
2017-04-18T06:57:28.075Z,75.77
2017-04-18T07:01:26.145Z,75.47
2017-04-18T07:02:44.383Z,75.73
2017-04-18T07:03:43.811Z,75.89
2017-04-18T07:04:23.884Z,75.50
2017-04-18T07:05:25.969Z,75.75
2017-04-18T07:06:24.526Z,75.28
2017-04-18T07:07:33.351Z,75.44
2017-04-18T07:08:32.198Z,75.03
2017-04-18T07:09:33.467Z,75.19
2017-04-18T07:10:32.048Z,75.18
2017-04-18T07:11:26.661Z,75.41
2017-04-18T07:13:32.349Z,74.64
2017-04-18T07:15:32.752Z,75.04
2017-04-18T07:16:19.296Z,74.07
2017-04-18T07:17:38.215Z,75.78
2017-04-18T07:18:33.887Z,75.52
2017-04-18T07:19:34.766Z,74.54
2017-04-18T07:20:25.942Z,74.67
2017-04-18T07:21:24.275Z,74.64
2017-04-18T07:22:25.191Z,74.24
2017-04-18T07:25:28.404Z,75.62
2017-04-18T07:26:23.804Z,75.33
2017-04-18T07:27:32.165Z,75.20
2017-04-18T07:28:32.439Z,74.91
2017-04-18T07:29:36.494Z,75.26
2017-04-18T07:30:32.543Z,75.04
2017-04-18T07:31:26.267Z,75.48
2017-04-18T07:34:38.041Z,74.83
2017-04-18T07:35:32.104Z,74.51
2017-04-18T07:36:32.608Z,74.26
2017-04-18T07:37:32.642Z,73.92
2017-04-18T07:38:34.120Z,73.93
2017-04-18T07:39:35.493Z,73.92
2017-04-18T07:40:25.002Z,74.09
2017-04-18T07:42:33.182Z,74.73
2017-04-18T07:45:32.276Z,73.40
2017-04-18T07:46:42.170Z,73.90
2017-04-18T07:47:32.611Z,73.79
2017-04-18T07:48:28.642Z,74.38
2017-04-18T07:49:30.050Z,73.36
2017-04-18T07:50:32.936Z,73.25
2017-04-18T07:51:26.382Z,74.82
2017-04-18T07:52:27.952Z,74.63
2017-04-18T07:53:22.309Z,74.44
2017-04-18T07:54:18.750Z,74.68
2017-04-18T07:55:28.795Z,73.44
2017-04-18T07:56:32.940Z,73.07
2017-04-18T07:57:38.018Z,72.65
2017-04-18T07:58:32.944Z,72.36
2017-04-18T08:00:38.195Z,73.38
2017-04-18T08:01:32.287Z,73.87
2017-04-18T08:03:33.552Z,72.58
2017-04-18T08:04:28.339Z,72.74
2017-04-18T08:05:32.816Z,73.86
2017-04-18T08:06:28.997Z,73.52
2017-04-18T08:08:37.990Z,71.71
2017-04-18T08:09:32.808Z,71.55
2017-04-18T08:10:38.253Z,72.55
2017-04-18T08:11:32.956Z,72.59
2017-04-18T08:12:32.332Z,72.36
2017-04-18T08:13:31.806Z,72.65
2017-04-18T08:14:33.067Z,72.90
2017-04-18T08:15:25.367Z,72.48
2017-04-18T08:16:23.922Z,71.18
2017-04-18T08:17:38.411Z,71.86
2017-04-18T08:18:33.524Z,71.51
2017-04-18T08:19:30.383Z,72.03
2017-04-18T08:20:38.212Z,72.39
2017-04-18T08:21:28.301Z,71.35
2017-04-18T08:22:32.330Z,70.94
2017-04-18T08:23:39.352Z,71.06
2017-04-18T08:24:34.159Z,71.06
2017-04-18T08:25:23.823Z,70.08
2017-04-18T08:26:31.883Z,69.32
2017-04-18T08:27:23.553Z,70.04
2017-04-18T08:28:25.242Z,70.78
2017-04-18T08:29:28.097Z,70.66
2017-04-18T08:31:33.384Z,70.92
2017-04-18T08:32:24.737Z,71.07
2017-04-18T08:33:38.040Z,71.64
2017-04-18T08:34:32.984Z,72.12
2017-04-18T08:35:38.808Z,71.38
2017-04-18T08:36:33.880Z,71.37
2017-04-18T08:37:33.705Z,71.06
2017-04-18T08:38:32.822Z,70.95
2017-04-18T08:39:33.646Z,72.12
2017-04-18T08:40:32.201Z,71.46
2017-04-18T08:41:43.945Z,72.43
2017-04-18T08:42:38.194Z,73.09
2017-04-18T08:43:33.637Z,73.10
2017-04-18T08:44:33.043Z,73.64
2017-04-18T08:45:32.307Z,73.88
2017-04-18T08:47:32.584Z,73.83
2017-04-18T08:48:32.406Z,74.12
2017-04-18T08:49:25.019Z,74.37
2017-04-18T08:50:23.281Z,73.63
2017-04-18T08:51:32.621Z,73.60
2017-04-18T08:52:32.804Z,73.67
2017-04-18T08:53:28.876Z,73.98
2017-04-18T08:54:23.970Z,76.63
2017-04-18T08:55:32.991Z,77.71
2017-04-18T08:56:33.010Z,83.23
2017-04-18T08:57:25.150Z,85.48
2017-04-18T08:58:32.201Z,85.14
2017-04-18T08:59:37.796Z,84.98
2017-04-18T09:00:24.893Z,83.68
2017-04-18T09:01:32.500Z,83.49
2017-04-18T09:02:32.568Z,82.55
2017-04-18T09:04:32.769Z,83.85
2017-04-18T09:05:29.963Z,82.89
2017-04-18T09:06:23.982Z,82.00
2017-04-18T09:07:33.070Z,81.21
2017-04-18T09:08:33.104Z,82.80
2017-04-18T09:09:32.679Z,81.81
2017-04-18T09:10:38.805Z,81.29
2017-04-18T09:11:34.140Z,82.22
2017-04-18T09:12:39.151Z,81.27
2017-04-18T09:14:28.669Z,80.66
2017-04-18T09:15:28.011Z,80.19
2017-04-18T09:16:25.557Z,80.05
2017-04-18T09:17:33.038Z,81.16
2017-04-18T09:18:32.558Z,79.65
2017-04-18T09:19:29.783Z,80.66
2017-04-18T09:20:27.907Z,80.33
2017-04-18T09:21:33.315Z,80.09
2017-04-18T09:23:33.605Z,79.82
2017-04-18T09:24:37.599Z,79.47
2017-04-18T09:25:38.156Z,78.19
2017-04-18T09:26:28.237Z,78.02
2017-04-18T09:27:27.430Z,78.87
2017-04-18T09:28:32.500Z,78.07
2017-04-18T09:29:38.831Z,78.71
2017-04-18T09:30:32.463Z,78.78
2017-04-18T09:31:32.437Z,79.04
2017-04-18T09:32:37.494Z,79.48
2017-04-18T09:33:28.912Z,78.75
2017-04-18T09:34:33.894Z,78.58
2017-04-18T09:36:32.404Z,77.62
2017-04-18T09:37:32.483Z,78.55
2017-04-18T09:38:33.086Z,80.13
2017-04-18T09:39:32.403Z,80.97
2017-04-18T09:40:29.412Z,79.78
2017-04-18T09:41:32.728Z,79.58
2017-04-18T09:42:29.434Z,79.23
2017-04-18T09:43:29.891Z,78.51
2017-04-18T09:44:37.072Z,79.19
2017-04-18T09:45:32.837Z,78.06
2017-04-18T09:46:38.279Z,77.11
2017-04-18T09:47:34.086Z,77.40
2017-04-18T09:48:32.282Z,77.38
2017-04-18T09:50:33.623Z,78.05
2017-04-18T09:51:36.680Z,78.74
2017-04-18T09:52:32.566Z,77.38
2017-04-18T09:53:33.742Z,78.31
2017-04-18T09:54:38.982Z,78.32
2017-04-18T09:55:25.454Z,77.75
2017-04-18T09:56:23.500Z,78.24
2017-04-18T09:57:28.395Z,78.31
2017-04-18T09:58:28.989Z,78.29
2017-04-18T09:59:33.909Z,77.84
2017-04-18T10:00:33.632Z,78.52
2017-04-18T10:01:38.834Z,78.56
2017-04-18T10:05:38.398Z,76.86
2017-04-18T10:06:32.441Z,76.69
2017-04-18T10:07:32.501Z,77.25
2017-04-18T10:08:31.349Z,77.53
2017-04-18T10:09:28.387Z,77.57
2017-04-18T10:10:28.394Z,77.32
2017-04-18T10:11:28.480Z,77.27
2017-04-18T10:12:37.601Z,76.79
2017-04-18T10:13:33.391Z,76.16
2017-04-18T10:14:24.530Z,75.96
2017-04-18T10:15:28.070Z,76.66
2017-04-18T10:16:43.329Z,76.64
2017-04-18T10:17:22.148Z,77.17
2017-04-18T10:18:28.237Z,77.83
2017-04-18T10:19:30.287Z,76.85
2017-04-18T10:20:37.934Z,76.71
2017-04-18T10:21:32.834Z,77.24
2017-04-18T10:23:32.508Z,77.30
2017-04-18T10:24:29.656Z,76.97
2017-04-18T10:25:34.039Z,77.26
2017-04-18T10:26:24.326Z,78.04
2017-04-18T10:27:34.356Z,78.17
2017-04-18T10:28:38.095Z,77.87
2017-04-18T10:29:33.715Z,78.00
2017-04-18T10:30:33.865Z,78.01
2017-04-18T10:31:26.398Z,78.84
2017-04-18T10:32:29.152Z,78.40
2017-04-18T10:33:43.566Z,78.79
2017-04-18T10:34:32.248Z,78.24
2017-04-18T10:35:32.838Z,78.30
2017-04-18T10:36:28.354Z,77.00
2017-04-18T10:37:33.622Z,77.93
2017-04-18T10:38:28.601Z,78.03
2017-04-18T10:39:32.438Z,77.87
2017-04-18T10:40:29.193Z,77.57
2017-04-18T10:41:35.030Z,78.26
2017-04-18T10:42:31.832Z,77.42
2017-04-18T10:43:32.747Z,77.57
2017-04-18T10:44:33.124Z,77.52
2017-04-18T10:45:38.010Z,77.53
2017-04-18T10:46:36.800Z,77.77
2017-04-18T10:47:38.921Z,77.16
2017-04-18T10:48:33.738Z,77.71
2017-04-18T10:49:39.582Z,76.68
2017-04-18T10:50:27.630Z,77.44
2017-04-18T10:51:33.468Z,77.48
2017-04-18T10:52:25.266Z,77.46
2017-04-18T10:53:38.865Z,77.59
2017-04-18T10:54:23.336Z,77.01
2017-04-18T10:56:38.293Z,78.33
2017-04-18T10:57:36.770Z,79.16
2017-04-18T10:58:38.366Z,79.47
2017-04-18T10:59:24.757Z,79.23
2017-04-18T11:01:32.363Z,77.93
2017-04-18T11:02:27.615Z,78.49
2017-04-18T11:03:32.848Z,78.49
2017-04-18T11:04:32.314Z,78.72
2017-04-18T11:05:32.437Z,78.44
2017-04-18T11:07:38.830Z,78.04
2017-04-18T11:08:29.611Z,77.96
2017-04-18T11:09:37.752Z,77.44
2017-04-18T11:10:33.608Z,76.81
2017-04-18T11:11:33.653Z,77.16
2017-04-18T11:12:21.281Z,77.26
2017-04-18T11:13:29.889Z,77.27
2017-04-18T11:14:43.879Z,77.51
2017-04-18T11:15:32.738Z,78.75
2017-04-18T11:17:37.334Z,77.62
2017-04-18T11:19:33.559Z,78.05
2017-04-18T11:20:38.078Z,78.17
2017-04-18T11:21:28.344Z,78.60
2017-04-18T11:22:37.473Z,79.30
2017-04-18T11:23:32.555Z,79.86
2017-04-18T11:25:32.937Z,79.40
2017-04-18T11:26:33.058Z,78.70
2017-04-18T11:27:32.406Z,79.43
2017-04-18T11:28:24.970Z,79.03
2017-04-18T11:29:28.714Z,78.81
2017-04-18T11:30:28.850Z,78.06
2017-04-18T11:31:32.991Z,77.38
2017-04-18T11:32:33.438Z,77.98
2017-04-18T11:33:33.477Z,79.29
2017-04-18T11:34:38.345Z,78.64
2017-04-18T11:36:33.936Z,78.59
2017-04-18T11:37:33.559Z,78.19
2017-04-18T11:38:33.580Z,77.14
2017-04-18T11:39:25.126Z,76.61
2017-04-18T11:40:34.141Z,76.77
2017-04-18T11:42:38.199Z,76.97
2017-04-18T11:43:33.325Z,77.15
2017-04-18T11:44:37.553Z,77.10
2017-04-18T11:45:29.309Z,77.73
2017-04-18T11:47:34.206Z,78.50
2017-04-18T11:48:32.811Z,77.59
2017-04-18T11:49:29.565Z,77.48
2017-04-18T11:50:24.275Z,77.54
2017-04-18T11:51:32.356Z,76.91
2017-04-18T11:52:28.666Z,76.37
2017-04-18T11:53:32.736Z,77.13
2017-04-18T11:54:26.905Z,76.89
2017-04-18T11:55:25.935Z,77.11
2017-04-18T11:56:25.440Z,76.12
2017-04-18T11:57:33.989Z,77.25
2017-04-18T12:00:28.658Z,76.57
2017-04-18T12:01:28.714Z,75.68
2017-04-18T12:02:21.761Z,75.63
2017-04-18T12:03:23.758Z,75.87
2017-04-18T12:04:38.317Z,75.53
2017-04-18T12:06:23.590Z,76.42
2017-04-18T12:07:32.325Z,75.83
2017-04-18T12:08:32.166Z,75.89
2017-04-18T12:10:38.871Z,76.15
2017-04-18T12:12:23.236Z,76.71
2017-04-18T12:13:27.824Z,76.66
2017-04-18T12:15:38.588Z,76.16
2017-04-18T12:16:32.348Z,76.56
2017-04-18T12:18:47.200Z,76.37
2017-04-18T12:19:33.489Z,76.36
2017-04-18T12:23:37.353Z,76.27
2017-04-18T12:24:32.121Z,75.97
2017-04-18T12:27:39.164Z,76.25
2017-04-18T12:29:28.489Z,75.60
2017-04-18T12:30:33.606Z,75.97
2017-04-18T12:32:32.300Z,75.71
2017-04-18T12:34:33.396Z,74.65
2017-04-18T12:35:32.510Z,74.81
2017-04-18T12:36:33.316Z,75.02
2017-04-18T12:39:33.834Z,75.27
2017-04-18T12:40:25.987Z,74.97
2017-04-18T12:42:33.500Z,74.67
2017-04-18T12:45:33.305Z,74.02
2017-04-18T12:46:33.775Z,73.69
2017-04-18T12:48:28.305Z,73.45
2017-04-18T12:51:34.094Z,73.36
2017-04-18T12:52:23.312Z,74.12
2017-04-18T12:53:38.711Z,74.65
2017-04-18T12:54:33.874Z,74.22
2017-04-18T12:55:32.938Z,74.26
2017-04-18T12:57:40.521Z,75.03
2017-04-18T12:58:37.670Z,74.51
2017-04-18T12:59:38.234Z,75.32
2017-04-18T13:01:32.876Z,75.31
2017-04-18T13:02:28.726Z,75.59
2017-04-18T13:03:38.720Z,74.79
2017-04-18T13:05:23.108Z,75.20
2017-04-18T13:08:38.857Z,74.06
2017-04-18T13:09:32.806Z,74.55
2017-04-18T13:10:32.981Z,73.46
2017-04-18T13:11:32.164Z,72.96
2017-04-18T13:12:32.853Z,73.04
2017-04-18T13:13:28.927Z,72.52
2017-04-18T13:14:33.657Z,73.27
2017-04-18T13:16:28.437Z,73.19
2017-04-18T13:17:43.891Z,72.11
2017-04-18T13:18:38.663Z,72.95
2017-04-18T13:19:33.773Z,72.53
2017-04-18T13:20:22.019Z,72.62
2017-04-18T13:21:32.255Z,72.70
2017-04-18T13:23:38.263Z,71.99
2017-04-18T13:26:32.947Z,71.44
2017-04-18T13:29:29.433Z,68.06
2017-04-18T13:32:32.690Z,70.42
2017-04-18T13:33:33.200Z,68.45
2017-04-18T13:34:33.202Z,68.68
2017-04-18T13:37:32.687Z,68.36
2017-04-18T13:38:32.848Z,67.78
2017-04-18T13:39:33.299Z,66.97
2017-04-18T13:40:32.312Z,67.34
2017-04-18T13:41:39.625Z,66.73
2017-04-18T13:42:33.030Z,65.56
2017-04-18T13:46:37.411Z,63.23
2017-04-18T13:47:32.707Z,62.75
2017-04-18T13:48:32.509Z,63.19
2017-04-18T13:50:36.897Z,59.44
2017-04-18T13:51:25.163Z,59.48
2017-04-18T13:52:38.046Z,58.29
2017-04-18T13:53:37.727Z,58.82
2017-04-18T13:55:38.914Z,62.18
2017-04-18T13:58:39.238Z,63.15
2017-04-18T14:01:32.531Z,63.44
2017-04-18T14:05:28.942Z,64.00
2017-04-18T14:08:44.042Z,58.97
2017-04-18T14:10:23.730Z,61.92
2017-04-18T14:11:25.916Z,62.62
2017-04-18T14:13:33.752Z,63.03
2017-04-18T14:14:30.802Z,62.84
2017-04-18T14:15:37.914Z,62.88
2017-04-18T14:17:37.546Z,63.71
2017-04-18T14:18:28.281Z,63.29
2017-04-18T14:19:28.229Z,62.65
2017-04-18T14:21:32.220Z,62.25
2017-04-18T14:23:29.893Z,63.45
2017-04-18T14:24:37.074Z,63.63
2017-04-18T14:25:26.470Z,62.92
2017-04-18T14:28:32.480Z,63.99
2017-04-18T14:30:32.090Z,65.82
2017-04-18T14:35:28.528Z,64.95
2017-04-18T14:38:34.611Z,64.40
2017-04-18T14:39:37.867Z,63.51
2017-04-18T14:42:33.024Z,62.78
2017-04-18T14:43:25.069Z,62.53
2017-04-18T14:45:37.001Z,61.79
2017-04-18T14:47:25.600Z,61.86
2017-04-18T14:55:39.265Z,58.28
2017-04-18T14:58:44.833Z,55.66
2017-04-18T14:59:37.990Z,54.59
2017-04-18T15:00:28.243Z,54.18
2017-04-18T15:01:32.326Z,55.33
2017-04-18T15:02:31.714Z,53.80
2017-04-18T15:03:24.840Z,54.44
2017-04-18T15:04:32.700Z,55.61
2017-04-18T15:05:25.832Z,55.65
2017-04-18T15:10:28.291Z,54.31
2017-04-18T15:12:33.783Z,55.16
2017-04-18T15:14:33.016Z,57.14
2017-04-18T15:15:25.198Z,58.22
2017-04-18T15:17:32.240Z,58.16
2017-04-18T15:20:28.486Z,59.75
2017-04-18T15:21:48.551Z,60.31
2017-04-18T15:22:42.739Z,61.11
2017-04-18T15:23:42.130Z,60.26
2017-04-18T15:24:28.510Z,61.33
2017-04-18T15:25:32.077Z,61.78
2017-04-18T15:27:38.850Z,60.76
2017-04-18T15:28:19.351Z,59.74
2017-04-18T15:30:32.878Z,57.32
2017-04-18T15:32:23.909Z,55.53
2017-04-18T15:34:32.117Z,52.77
2017-04-18T15:35:28.357Z,51.77
2017-04-18T15:37:28.463Z,51.71
2017-04-18T15:40:32.043Z,50.54
2017-04-18T15:44:26.929Z,54.97
2017-04-18T15:45:25.534Z,55.70
2017-04-18T15:46:38.245Z,55.66
2017-04-18T15:48:38.848Z,57.41
2017-04-18T15:51:17.904Z,55.96
2017-04-18T15:54:33.116Z,55.12
2017-04-18T15:57:32.921Z,56.49
2017-04-18T15:58:28.502Z,55.59
2017-04-18T15:59:47.081Z,54.82
2017-04-18T16:01:23.929Z,52.64
2017-04-18T16:02:24.193Z,52.61
2017-04-18T16:03:29.318Z,52.85
2017-04-18T16:05:33.833Z,52.22